| time (UTC) | temp F | wind direction | speed MPH | gust MPH | rain 1hr in | rain 24hr in | rain mn in | humidity % | barometer mb |
| 20260506232237 | 54 | 0.0 | 0.0 | 0.15 | 0.00 | 0.00 | 99 | 1008.2 | |
| 20260506231332 | 54 | 0.0 | 0.0 | 0.16 | 0.00 | 0.00 | 99 | 1008.1 | |
| 20260506230501 | 54 | 0.0 | 0.0 | 0.06 | 0.00 | 0.00 | 99 | 1008.1 | |
| 20260506225506 | 54 | 0.0 | 0.0 | 0.03 | 0.00 | 0.00 | 99 | 1008.1 | |
| 20260506224531 | 54 | 0.0 | 0.0 | 0.03 | 0.00 | 0.00 | 99 | 1008.0 | |
| 20260506223537 | 54 | 0.0 | 0.0 | 0.00 | 0.00 | 0.00 | 99 | 1008.1 | |
| 20260506222721 | 54 | 0.0 | 0.0 | 0.00 | 0.00 | 0.00 | 99 | 1007.9 | |
| 20260506221846 | 54 | 0.0 | 0.0 | 0.00 | 0.00 | 0.00 | 99 | 1008.2 | |
| 20260506220926 | 54 | 0.0 | 0.0 | 0.00 | 0.00 | 0.00 | 99 | 1008.1 | |
| 20260506220026 | 54 | 0.0 | 0.0 | 0.00 | 0.00 | 0.00 | 99 | 1008.0 | |
| 20260506215207 | 54 | 0.0 | 0.0 | 0.00 | 0.00 | 0.00 | 99 | 1007.6 | |
| 20260506214322 | 54 | 0.0 | 0.0 | 0.00 | 0.00 | 0.00 | 99 | 1007.5 | |
| 20260506213506 | 54 | 0.0 | 0.0 | 0.00 | 0.00 | 0.00 | 99 | 1007.2 | |
| 20260506212621 | 54 | 0.0 | 0.0 | 0.00 | 0.00 | 0.00 | 99 | 1007.3 | |
| 20260506211627 | 54 | 0.0 | 0.0 | 0.00 | 0.00 | 0.00 | 99 | 1007.1 | |
| 20260506210637 | 54 | 0.0 | 0.0 | 0.00 | 0.00 | 0.00 | 99 | 1007.4 | |
| 20260506205707 | 54 | 0.0 | 0.0 | 0.00 | 0.00 | 0.00 | 99 | 1007.2 | |
| 20260506204707 | 54 | 0.0 | 0.0 | 0.00 | 0.00 | 0.00 | 99 | 1007.0 | |
| 20260506203902 | 54 | 0.0 | 0.0 | 0.00 | 0.00 | 0.00 | 99 | 1007.0 | |
| 20260506203006 | 55 | 0.0 | 0.0 | 0.00 | 0.00 | 0.00 | 99 | 1007.2 | |
| 20260506202051 | 54 | 0.0 | 0.0 | 0.00 | 0.00 | 0.00 | 99 | 1007.2 | |
| 20260506201106 | 54 | 0.0 | 0.0 | 0.00 | 0.00 | 0.00 | 99 | 1007.3 | |
| 20260506200237 | 54 | 0.0 | 0.0 | 0.00 | 0.00 | 0.00 | 99 | 1007.6 | |
| 20260506195356 | 54 | 0.0 | 0.0 | 0.07 | 0.00 | 0.00 | 99 | 1007.5 | |
| 20260506194541 | 54 | 0.0 | 0.0 | 0.12 | 0.00 | 0.00 | 99 | 1007.4 | |
| 20260506193621 | 54 | 0.0 | 0.0 | 0.22 | 0.00 | 0.00 | 99 | 1007.3 | |
| 20260506192711 | 54 | 0.0 | 0.0 | 0.52 | 0.00 | 0.00 | 99 | 1007.5 | |
| 20260506191827 | 55 | 0.0 | 0.0 | 0.55 | 0.00 | 0.00 | 99 | 1007.6 | |
| 20260506191021 | 55 | 0.0 | 0.0 | 0.04 | 0.00 | 0.00 | 99 | 1007.3 | |
| 20260506190114 | 55 | 0.0 | 0.0 | 0.02 | 0.00 | 0.00 | 99 | 1006.8 | |
| 20260506185212 | 55 | 0.0 | 0.0 | 0.00 | 0.00 | 0.00 | 99 | 1006.2 | |
| 20260506184231 | 55 | 0.0 | 0.0 | 0.00 | 0.00 | 0.00 | 99 | 1006.4 | |
| 20260506183418 | 54 | 0.0 | 0.0 | 0.00 | 0.00 | 0.00 | 99 | 1006.3 | |
| 20260506182622 | 54 | 0.0 | 0.0 | 0.00 | 0.00 | 0.00 | 99 | 1006.3 | |
| 20260506181712 | 55 | 0.0 | 0.0 | 0.04 | 0.00 | 0.00 | 99 | 1006.3 | |
| 20260506180811 | 55 | 0.0 | 0.0 | 0.44 | 0.00 | 0.00 | 99 | 1006.3 | |
| 20260506175937 | 55 | 0.0 | 0.0 | 0.71 | 0.00 | 0.00 | 98 | 1006.7 | |
| 20260506175122 | 55 | 0.0 | 0.0 | 0.61 | 0.00 | 0.00 | 98 | 1007.1 | |
| 20260506174126 | 55 | 0.0 | 0.0 | 0.37 | 0.00 | 0.00 | 98 | 1006.9 | |
| 20260506173131 | 56 | 0.0 | 0.0 | 0.10 | 0.00 | 0.00 | 98 | 1006.0 | |
| 20260506172202 | 56 | 0.0 | 0.0 | 0.04 | 0.00 | 0.00 | 97 | 1006.5 | |
| 20260506171316 | 55 | 0.0 | 0.0 | 0.05 | 0.00 | 0.00 | 96 | 1006.0 | |
| 20260506170351 | 56 | 0.0 | 0.0 | 0.22 | 0.00 | 0.00 | 96 | 1005.6 | |
| 20260506165356 | 56 | 0.0 | 0.0 | 0.26 | 0.00 | 0.00 | 95 | 1006.0 | |
| 20260506164511 | 56 | 0.0 | 0.0 | 0.22 | 0.00 | 0.00 | 94 | 1006.4 | |
| 20260506163552 | 56 | 0.0 | 0.0 | 0.15 | 0.00 | 0.00 | 94 | 1006.2 | |
| 20260506162637 | 56 | 0.0 | 0.0 | 0.00 | 0.00 | 0.00 | 93 | 1006.0 | |
| 20260506161832 | 56 | 0.0 | 0.0 | 0.00 | 0.00 | 0.00 | 92 | 1005.8 | |
| 20260506160842 | 56 | 0.0 | 0.0 | 0.00 | 0.00 | 0.00 | 91 | 1006.1 | |
| 20260506155931 | 56 | 0.0 | 0.0 | 0.00 | 0.00 | 0.00 | 90 | 1006.1 | |
| 20260506155116 | 56 | 0.0 | 0.0 | 0.00 | 0.00 | 0.00 | 88 | 1006.2 | |
| 20260506154155 | 57 | 0.0 | 0.0 | 0.11 | 0.00 | 0.00 | 82 | 1006.6 | |
| 20260506153251 | 60 | 0.0 | 0.0 | 0.09 | 0.00 | 0.00 | 74 | 1007.0 | |
| 20260506152321 | 67 | 0.0 | 0.0 | 0.00 | 0.00 | 0.00 | 63 | 1006.9 | |
| 20260506151422 | 68 | 0.0 | 0.0 | 0.00 | 0.00 | 0.00 | 58 | 1006.2 | |
| 20260506150451 | 69 | 0.0 | 0.0 | 0.00 | 0.00 | 0.00 | 55 | 1006.1 | |
| 20260506145612 | 70 | 0.0 | 0.0 | 0.00 | 0.00 | 0.00 | 54 | 1006.2 | |
| 20260506144712 | 70 | 0.0 | 0.0 | 0.00 | 0.00 | 0.00 | 53 | 1006.2 | |
| 20260506143757 | 71 | 0.0 | 0.0 | 0.00 | 0.00 | 0.00 | 52 | 1006.2 | |
| 20260506142756 | 72 | 0.0 | 0.0 | 0.00 | 0.00 | 0.00 | 49 | 1006.3 | |
| 20260506141831 | 72 | 0.0 | 0.0 | 0.00 | 0.00 | 0.00 | 50 | 1006.3 | |
| 20260506141012 | 72 | 0.0 | 0.0 | 0.00 | 0.00 | 0.00 | 52 | 1006.5 | |
| 20260506140026 | 73 | 0.0 | 0.0 | 0.00 | 0.00 | 0.00 | 51 | 1006.7 | |
| 20260506135222 | 73 | 0.0 | 0.0 | 0.00 | 0.00 | 0.00 | 52 | 1006.7 | |
| 20260506134306 | 72 | 0.0 | 0.0 | 0.00 | 0.00 | 0.00 | 53 | 1006.8 | |
| 20260506133411 | 73 | 0.0 | 0.0 | 0.00 | 0.00 | 0.00 | 52 | 1006.9 | |
| 20260506132606 | 73 | 0.0 | 0.0 | 0.00 | 0.00 | 0.00 | 53 | 1007.0 | |
| 20260506131641 | 73 | 0.0 | 0.0 | 0.00 | 0.00 | 0.00 | 51 | 1007.1 | |
| 20260506130736 | 73 | 0.0 | 0.0 | 0.00 | 0.00 | 0.00 | 50 | 1007.2 | |
| 20260506125911 | 73 | 0.0 | 0.0 | 0.00 | 0.00 | 0.00 | 51 | 1007.2 | |
| 20260506124941 | 72 | 0.0 | 0.0 | 0.00 | 0.00 | 0.00 | 52 | 1007.2 | |
| 20260506124016 | 72 | 0.0 | 0.0 | 0.00 | 0.00 | 0.00 | 53 | 1007.3 | |
| 20260506123142 | 71 | 0.0 | 0.0 | 0.00 | 0.00 | 0.00 | 54 | 1007.3 | |
| 20260506122246 | 71 | 0.0 | 0.0 | 0.00 | 0.00 | 0.00 | 54 | 1007.3 | |
| 20260506121337 | 71 | 0.0 | 0.0 | 0.00 | 0.00 | 0.00 | 54 | 1007.4 | |
| 20260506120341 | 69 | 0.0 | 0.0 | 0.00 | 0.00 | 0.00 | 57 | 1007.4 | |
| 20260506115500 | 70 | 0.0 | 0.0 | 0.00 | 0.00 | 0.00 | 58 | 1007.2 | |
| 20260506114636 | 70 | 0.0 | 0.0 | 0.00 | 0.00 | 0.00 | 57 | 1007.3 | |
| 20260506113817 | 69 | 0.0 | 0.0 | 0.00 | 0.00 | 0.00 | 58 | 1007.3 | |
| 20260506112821 | 70 | 0.0 | 0.0 | 0.00 | 0.00 | 0.00 | 58 | 1007.3 | |
| 20260506111857 | 70 | 0.0 | 0.0 | 0.00 | 0.00 | 0.00 | 59 | 1007.4 | |
| 20260506111041 | 69 | 0.0 | 0.0 | 0.00 | 0.00 | 0.00 | 61 | 1007.5 | |
| 20260506110042 | 69 | 0.0 | 0.0 | 0.00 | 0.00 | 0.00 | 63 | 1007.4 | |
| 20260506105047 | 68 | 0.0 | 0.0 | 0.00 | 0.00 | 0.00 | 64 | 1007.5 | |
| 20260506104201 | 67 | 0.0 | 0.0 | 0.00 | 0.00 | 0.00 | 65 | 1007.4 | |
| 20260506103331 | 68 | 0.0 | 0.0 | 0.00 | 0.00 | 0.00 | 63 | 1007.5 | |
| 20260506102406 | 67 | 0.0 | 0.0 | 0.00 | 0.00 | 0.00 | 64 | 1007.5 | |
| 20260506101406 | 67 | 0.0 | 0.0 | 0.00 | 0.00 | 0.00 | 64 | 1007.6 | |
| 20260506100457 | 68 | 0.0 | 0.0 | 0.00 | 0.00 | 0.00 | 63 | 1007.4 | |
| 20260506095542 | 67 | 0.0 | 0.0 | 0.00 | 0.00 | 0.00 | 64 | 1007.3 | |
| 20260506094657 | 66 | 0.0 | 0.0 | 0.00 | 0.00 | 0.00 | 66 | 1007.2 | |
| 20260506093855 | 66 | 0.0 | 0.0 | 0.00 | 0.00 | 0.00 | 66 | 1007.1 | |
| 20260506092932 | 64 | 0.0 | 0.0 | 0.00 | 0.00 | 0.00 | 68 | 1007.0 | |
| 20260506092037 | 64 | 0.0 | 0.0 | 0.00 | 0.00 | 0.00 | 67 | 1006.9 | |
| 20260506091107 | 62 | 0.0 | 0.0 | 0.00 | 0.00 | 0.00 | 70 | 1006.8 | |
| 20260506090112 | 62 | 0.0 | 0.0 | 0.00 | 0.00 | 0.00 | 72 | 1006.9 | |
| 20260506085142 | 62 | 0.0 | 0.0 | 0.00 | 0.00 | 0.00 | 72 | 1007.1 | |
| 20260506084247 | 62 | 0.0 | 0.0 | 0.00 | 0.00 | 0.00 | 73 | 1007.2 | |
| 20260506083402 | 62 | 0.0 | 0.0 | 0.00 | 0.00 | 0.00 | 75 | 1007.3 | |
| 20260506082407 | 61 | 0.0 | 0.0 | 0.00 | 0.00 | 0.00 | 74 | 1007.2 | |
| 20260506081547 | 61 | 0.0 | 0.0 | 0.00 | 0.00 | 0.00 | 75 | 1007.2 | |
| 20260506080622 | 61 | 0.0 | 0.0 | 0.00 | 0.00 | 0.00 | 76 | 1007.2 | |
| 20260506073042 | 63 | 0.0 | 0.0 | 0.00 | 0.00 | 0.00 | 74 | 1006.9 | |
| 20260506072122 | 63 | 0.0 | 0.0 | 0.00 | 0.00 | 0.00 | 74 | 1006.7 | |
| 20260506071317 | 63 | 0.0 | 0.0 | 0.00 | 0.00 | 0.00 | 74 | 1006.8 | |
| 20260506070320 | 63 | 0.0 | 0.0 | 0.00 | 0.00 | 0.00 | 74 | 1006.8 | |
| 20260506062007 | 61 | 0.0 | 0.0 | 0.00 | 0.00 | 0.00 | 78 | 1006.5 | |
| 20260506061207 | 61 | 0.0 | 0.0 | 0.00 | 0.00 | 0.00 | 79 | 1006.5 | |
| 20260506060257 | 59 | 0.0 | 0.0 | 0.00 | 0.00 | 0.00 | 82 | 1006.4 | |
| 20260506050712 | 59 | 0.0 | 0.0 | 0.00 | 0.00 | 0.00 | 81 | 1006.1 | |
| 20260506044737 | 57 | 0.0 | 0.0 | 0.00 | 0.00 | 0.00 | 84 | 1005.9 | |
| 20260506043907 | 56 | 0.0 | 0.0 | 0.00 | 0.00 | 0.00 | 81 | 1006.0 | |
| 20260506043007 | 56 | 0.0 | 0.0 | 0.00 | 0.00 | 0.00 | 80 | 1006.0 | |
| 20260506042022 | 56 | 0.0 | 0.0 | 0.00 | 0.00 | 0.00 | 80 | 1005.9 | |
| 20260506041107 | 55 | 0.0 | 0.0 | 0.00 | 0.00 | 0.00 | 85 | 1005.7 | |
| 20260506040107 | 55 | 0.0 | 0.0 | 0.00 | 0.00 | 0.00 | 85 | 1005.6 | |
| 20260506035127 | 55 | 0.0 | 0.0 | 0.00 | 0.00 | 0.00 | 88 | 1005.6 | |
| 20260506034126 | 54 | 0.0 | 0.0 | 0.00 | 0.00 | 0.00 | 91 | 1005.6 | |
| 20260506033202 | 54 | 0.0 | 0.0 | 0.00 | 0.00 | 0.00 | 92 | 1005.6 | |
| 20260506032347 | 53 | 0.0 | 0.0 | 0.00 | 0.00 | 0.00 | 91 | 1005.0 | |
| 20260506031442 | 53 | 0.0 | 0.0 | 0.00 | 0.00 | 0.00 | 89 | 1005.4 | |
| 20260506030502 | 53 | 0.0 | 0.0 | 0.00 | 0.00 | 0.00 | 89 | 1005.6 | |
| 20260506025537 | 53 | 0.0 | 0.0 | 0.00 | 0.00 | 0.00 | 88 | 1005.6 | |
| 20260506024617 | 53 | 0.0 | 0.0 | 0.00 | 0.00 | 0.00 | 88 | 1005.6 | |
| 20260506023637 | 54 | 0.0 | 0.0 | 0.00 | 0.00 | 0.00 | 86 | 1005.8 | |
| 20260506022722 | 54 | 0.0 | 0.0 | 0.00 | 0.00 | 0.00 | 84 | 1005.9 | |
| 20260506021912 | 54 | 0.0 | 0.0 | 0.00 | 0.00 | 0.00 | 82 | 1006.0 | |
| 20260506020927 | 55 | 0.0 | 0.0 | 0.00 | 0.00 | 0.00 | 81 | 1006.1 | |
| 20260506015927 | 56 | 0.0 | 0.0 | 0.00 | 0.00 | 0.00 | 79 | 1005.9 | |
| 20260506014957 | 56 | 0.0 | 0.0 | 0.00 | 0.00 | 0.00 | 75 | 1005.9 | |
| 20260506014017 | 57 | 0.0 | 0.0 | 0.00 | 0.00 | 0.00 | 72 | 1005.8 | |
| 20260506013057 | 58 | 0.0 | 0.0 | 0.00 | 0.00 | 0.00 | 72 | 1005.8 | |
| 20260506012232 | 58 | 0.0 | 0.0 | 0.00 | 0.00 | 0.00 | 71 | 1005.7 | |
| 20260506011307 | 59 | 0.0 | 0.0 | 0.00 | 0.00 | 0.00 | 70 | 1005.9 | |
| 20260506010427 | 58 | 0.0 | 0.0 | 0.00 | 0.00 | 0.00 | 70 | 1005.8 | |
| 20260506005614 | 58 | 0.0 | 0.0 | 0.00 | 0.00 | 0.00 | 70 | 1005.9 | |
| 20260506004757 | 58 | 0.0 | 0.0 | 0.00 | 0.00 | 0.00 | 71 | 1005.8 | |
| 20260506003858 | 58 | 0.0 | 0.0 | 0.00 | 0.00 | 0.00 | 72 | 1005.8 | |
| 20260506002957 | 57 | 0.0 | 0.0 | 0.00 | 0.00 | 0.00 | 74 | 1005.9 | |
| 20260506002117 | 57 | 0.0 | 0.0 | 0.00 | 0.00 | 0.00 | 74 | 1006.0 | |
| 20260506001207 | 57 | 0.0 | 0.0 | 0.00 | 0.00 | 0.00 | 77 | 1006.1 | |
| 20260506000257 | 55 | 0.0 | 0.0 | 0.00 | 0.00 | 0.00 | 84 | 1006.3 | |
| 20260505235402 | 54 | 0.0 | 0.0 | 0.00 | 0.00 | 0.00 | 91 | 1006.3 | |
| 20260505234512 | 54 | 0.0 | 0.0 | 0.00 | 0.00 | 0.00 | 92 | 1006.2 | |
| 20260505233612 | 54 | 0.0 | 0.0 | 0.00 | 0.00 | 0.00 | 92 | 1006.0 |